Time,TemperatureF,DewpointF,PressureIn,WindDirection,WindDirectionDegrees,WindSpeedMPH,WindSpeedGustMPH,Humidity,HourlyPrecipIn,Conditions,Clouds,dailyrainin,SoftwareType,DateUTC
2013-03-05 00:09:00,36.7,25.7,29.94,WNW,292,0.0,-999.0,64,-99.99,,,0.00,Acu-Link.com,2013-03-05 05:09:00,
2013-03-05 00:25:00,36.9,25.5,29.94,NNW,337,0.0,-999.0,63,-99.99,,,0.00,Acu-Link.com,2013-03-05 05:25:00,
2013-03-05 00:40:00,36.9,26.3,29.93,ESE,112,0.0,-999.0,65,-99.99,,,0.00,Acu-Link.com,2013-03-05 05:40:00,
2013-03-05 00:55:00,37.2,27.3,29.94,West,270,0.0,-999.0,67,-99.99,,,0.00,Acu-Link.com,2013-03-05 05:55:00,
2013-03-05 01:11:00,37.2,27.3,29.94,West,270,0.0,-999.0,67,-99.99,,,0.00,Acu-Link.com,2013-03-05 06:11:00,
2013-03-05 01:26:00,37.2,28.3,29.94,ESE,112,0.0,-999.0,70,-99.99,,,0.00,Acu-Link.com,2013-03-05 06:26:00,
2013-03-05 01:41:00,37.0,27.1,29.95,WSW,247,0.0,-999.0,67,-99.99,,,0.00,Acu-Link.com,2013-03-05 06:41:00,
2013-03-05 01:57:00,37.0,29.2,29.95,West,270,0.0,-999.0,73,-99.99,,,0.00,Acu-Link.com,2013-03-05 06:57:00,
2013-03-05 02:12:00,37.4,29.2,29.94,WSW,247,0.0,-999.0,72,-99.99,,,0.00,Acu-Link.com,2013-03-05 07:12:00,
2013-03-05 02:27:00,37.8,28.9,29.93,SE,135,0.0,-999.0,70,-99.99,,,0.00,Acu-Link.com,2013-03-05 07:27:00,
2013-03-05 02:43:00,38.1,30.9,29.94,WNW,292,0.0,-999.0,75,-99.99,,,0.00,Acu-Link.com,2013-03-05 07:43:00,
2013-03-05 02:58:00,38.3,29.4,29.94,WNW,292,0.0,-999.0,70,-99.99,,,0.00,Acu-Link.com,2013-03-05 07:58:00,
2013-03-05 03:13:00,39.0,26.7,29.93,SW,225,0.0,-999.0,61,-99.99,,,0.00,Acu-Link.com,2013-03-05 08:13:00,
2013-03-05 03:28:00,39.4,29.0,29.94,NNW,337,0.0,-999.0,66,-99.99,,,0.00,Acu-Link.com,2013-03-05 08:28:00,
2013-03-05 03:43:00,39.2,28.1,29.94,WNW,292,0.0,-999.0,64,-99.99,,,0.00,Acu-Link.com,2013-03-05 08:43:00,
2013-03-05 03:59:00,39.2,29.5,29.94,WNW,292,0.0,-999.0,68,-99.99,,,0.00,Acu-Link.com,2013-03-05 08:59:00,
2013-03-05 04:14:00,39.2,28.8,29.93,South,180,0.0,-999.0,66,-99.99,,,0.00,Acu-Link.com,2013-03-05 09:14:00,
2013-03-05 04:29:00,39.2,29.5,29.94,SSE,157,0.0,-999.0,68,-99.99,,,0.00,Acu-Link.com,2013-03-05 09:29:00,
2013-03-05 04:45:00,38.8,29.5,29.94,ESE,112,0.0,-999.0,69,-99.99,,,0.00,Acu-Link.com,2013-03-05 09:45:00,
2013-03-05 05:00:00,38.1,30.6,29.95,SE,135,0.0,-999.0,74,-99.99,,,0.00,Acu-Link.com,2013-03-05 10:00:00,
2013-03-05 05:15:00,37.2,29.7,29.95,ESE,112,0.0,-999.0,74,-99.99,,,0.00,Acu-Link.com,2013-03-05 10:15:00,
2013-03-05 05:31:00,36.9,30.1,29.95,ESE,112,0.0,-999.0,76,-99.99,,,0.00,Acu-Link.com,2013-03-05 10:31:00,
2013-03-05 05:46:00,36.9,30.7,29.94,SSE,157,0.0,-999.0,78,-99.99,,,0.00,Acu-Link.com,2013-03-05 10:46:00,
2013-03-05 06:01:00,36.5,30.3,29.94,SSE,157,0.0,-999.0,78,-99.99,,,0.00,Acu-Link.com,2013-03-05 11:01:00,
2013-03-05 06:16:00,35.8,30.2,29.93,ESE,112,0.0,-999.0,80,-99.99,,,0.00,Acu-Link.com,2013-03-05 11:16:00,
2013-03-05 06:32:00,35.2,30.3,29.93,ESE,112,0.0,-999.0,82,-99.99,,,0.00,Acu-Link.com,2013-03-05 11:32:00,
2013-03-05 06:47:00,35.1,30.5,29.92,ESE,112,0.0,-999.0,83,-99.99,,,0.00,Acu-Link.com,2013-03-05 11:47:00,
2013-03-05 07:02:00,35.2,30.9,29.92,SSE,157,0.0,-999.0,84,-99.99,,,0.00,Acu-Link.com,2013-03-05 12:02:00,
2013-03-05 07:18:00,35.8,31.4,29.91,ESE,112,0.0,-999.0,84,-99.99,,,0.00,Acu-Link.com,2013-03-05 12:18:00,
2013-03-05 07:33:00,36.7,31.1,29.91,ESE,112,0.0,-999.0,80,-99.99,,,0.00,Acu-Link.com,2013-03-05 12:33:00,
2013-03-05 07:48:00,38.5,31.6,29.91,ESE,112,0.0,-999.0,76,-99.99,,,0.00,Acu-Link.com,2013-03-05 12:48:00,
2013-03-05 08:04:00,40.8,31.1,29.91,SE,135,0.0,-999.0,68,-99.99,,,0.00,Acu-Link.com,2013-03-05 13:04:00,
2013-03-05 08:19:00,42.4,29.5,29.91,SSE,157,1.7,-999.0,60,-99.99,,,0.00,Acu-Link.com,2013-03-05 13:19:00,
2013-03-05 08:34:00,44.2,29.5,29.91,NE,45,1.7,-999.0,56,-99.99,,,0.00,Acu-Link.com,2013-03-05 13:34:00,
2013-03-05 08:49:00,45.5,30.7,29.90,SSE,157,2.7,-999.0,56,-99.99,,,0.00,Acu-Link.com,2013-03-05 13:49:00,
2013-03-05 09:04:00,46.6,30.9,29.89,WNW,292,1.1,-999.0,54,-99.99,,,0.00,Acu-Link.com,2013-03-05 14:04:00,
2013-03-05 09:20:00,47.3,31.5,29.90,North,0,2.2,-999.0,54,-99.99,,,0.00,Acu-Link.com,2013-03-05 14:20:00,
2013-03-05 09:35:00,48.7,33.3,29.91,NNW,337,4.7,-999.0,55,-99.99,,,0.00,Acu-Link.com,2013-03-05 14:35:00,
2013-03-05 09:51:00,50.2,33.7,29.91,SW,225,5.8,-999.0,53,-99.99,,,0.00,Acu-Link.com,2013-03-05 14:51:00,
2013-03-05 10:06:00,50.4,33.0,29.89,SW,225,3.2,-999.0,51,-99.99,,,0.00,Acu-Link.com,2013-03-05 15:06:00,
2013-03-05 10:21:00,50.4,33.4,29.89,West,270,3.2,-999.0,52,-99.99,,,0.00,Acu-Link.com,2013-03-05 15:21:00,
2013-03-05 10:37:00,49.6,34.1,29.88,SW,225,0.0,-999.0,55,-99.99,,,0.00,Acu-Link.com,2013-03-05 15:37:00,
2013-03-05 10:52:00,49.8,34.7,29.88,NW,315,0.0,-999.0,56,-99.99,,,0.00,Acu-Link.com,2013-03-05 15:52:00,
2013-03-05 11:07:00,50.4,34.8,29.88,SW,225,0.0,-999.0,55,-99.99,,,0.00,Acu-Link.com,2013-03-05 16:07:00,
2013-03-05 11:23:00,50.9,35.8,29.88,NNW,337,1.1,-999.0,56,-99.99,,,0.00,Acu-Link.com,2013-03-05 16:23:00,
2013-03-05 11:38:00,50.5,35.8,29.88,WSW,247,1.1,-999.0,57,-99.99,,,0.00,Acu-Link.com,2013-03-05 16:38:00,
2013-03-05 11:53:00,50.4,38.7,29.87,SSE,157,0.0,-999.0,64,-99.99,,,0.00,Acu-Link.com,2013-03-05 16:53:00,
2013-03-05 12:08:00,48.7,42.8,29.88,WNW,292,2.7,-999.0,80,-99.99,,,0.00,Acu-Link.com,2013-03-05 17:08:00,
2013-03-05 12:23:00,46.9,44.1,29.87,WSW,247,2.2,-999.0,90,-99.99,,,0.00,Acu-Link.com,2013-03-05 17:23:00,
2013-03-05 12:38:00,45.1,44.6,29.86,SW,225,1.7,-999.0,98,-99.99,,,0.00,Acu-Link.com,2013-03-05 17:38:00,
2013-03-05 12:54:00,44.8,44.3,29.84,NNW,337,1.7,-999.0,98,-99.99,,,0.01,Acu-Link.com,2013-03-05 17:54:00,
2013-03-05 13:09:00,44.6,44.1,29.83,SSE,157,1.7,-999.0,98,-99.99,,,0.02,Acu-Link.com,2013-03-05 18:09:00,
2013-03-05 13:24:00,44.8,44.3,29.82,West,270,0.0,-999.0,98,-99.99,,,0.03,Acu-Link.com,2013-03-05 18:24:00,
2013-03-05 13:40:00,45.1,44.6,29.81,West,270,0.0,-999.0,98,-99.99,,,0.06,Acu-Link.com,2013-03-05 18:40:00,
2013-03-05 13:55:00,45.0,44.5,29.80,South,180,1.1,-999.0,98,-99.99,,,0.07,Acu-Link.com,2013-03-05 18:55:00,
2013-03-05 14:10:00,44.8,44.3,29.80,North,0,1.1,-999.0,98,-99.99,,,0.09,Acu-Link.com,2013-03-05 19:10:00,
2013-03-05 14:25:00,44.6,44.1,29.80,NNW,337,0.0,-999.0,98,-99.99,,,0.09,Acu-Link.com,2013-03-05 19:25:00,
2013-03-05 14:41:00,44.6,44.1,29.78,NNW,337,0.0,-999.0,98,-99.99,,,0.09,Acu-Link.com,2013-03-05 19:41:00,
2013-03-05 14:56:00,44.6,44.1,29.77,NNW,337,0.0,-999.0,98,-99.99,,,0.09,Acu-Link.com,2013-03-05 19:56:00,
2013-03-05 15:11:00,44.6,44.1,29.76,ENE,67,1.1,-999.0,98,-99.99,,,0.09,Acu-Link.com,2013-03-05 20:11:00,
2013-03-05 15:27:00,44.8,44.3,29.77,NE,45,0.0,-999.0,98,-99.99,,,0.10,Acu-Link.com,2013-03-05 20:27:00,
2013-03-05 15:42:00,44.8,44.3,29.76,West,270,1.7,-999.0,98,-99.99,,,0.10,Acu-Link.com,2013-03-05 20:42:00,
2013-03-05 15:57:00,44.8,44.3,29.75,SSE,157,0.0,-999.0,98,-99.99,,,0.11,Acu-Link.com,2013-03-05 20:57:00,
2013-03-05 16:13:00,45.0,44.5,29.74,NE,45,0.0,-999.0,98,-99.99,,,0.11,Acu-Link.com,2013-03-05 21:13:00,
2013-03-05 16:28:00,45.0,44.5,29.73,ESE,112,0.0,-999.0,98,-99.99,,,0.11,Acu-Link.com,2013-03-05 21:28:00,
2013-03-05 16:43:00,45.0,44.5,29.73,NE,45,0.0,-999.0,98,-99.99,,,0.11,Acu-Link.com,2013-03-05 21:43:00,
2013-03-05 16:58:00,45.0,44.5,29.73,SSW,202,0.0,-999.0,98,-99.99,,,0.13,Acu-Link.com,2013-03-05 21:58:00,
2013-03-05 17:14:00,45.0,44.5,29.72,SSW,202,0.0,-999.0,98,-99.99,,,0.14,Acu-Link.com,2013-03-05 22:14:00,
2013-03-05 17:29:00,45.0,44.5,29.71,SSW,202,0.0,-999.0,98,-99.99,,,0.14,Acu-Link.com,2013-03-05 22:29:00,
2013-03-05 17:44:00,44.8,44.3,29.71,WNW,292,0.0,-999.0,98,-99.99,,,0.14,Acu-Link.com,2013-03-05 22:44:00,
2013-03-05 18:00:00,44.8,44.3,29.70,NNW,337,1.7,-999.0,98,-99.99,,,0.15,Acu-Link.com,2013-03-05 23:00:00,
2013-03-05 18:15:00,44.8,44.3,29.69,West,270,0.0,-999.0,98,-99.99,,,0.15,Acu-Link.com,2013-03-05 23:15:00,
2013-03-05 18:30:00,44.6,44.1,29.69,SSW,202,0.0,-999.0,98,-99.99,,,0.15,Acu-Link.com,2013-03-05 23:30:00,
2013-03-05 18:46:00,44.4,43.9,29.67,ESE,112,0.0,-999.0,98,-99.99,,,0.15,Acu-Link.com,2013-03-05 23:46:00,
2013-03-05 19:01:00,44.2,43.7,29.65,WNW,292,1.7,-999.0,98,-99.99,,,0.15,Acu-Link.com,2013-03-06 00:01:00,
2013-03-05 19:16:00,44.2,43.7,29.64,ESE,112,2.2,-999.0,98,-99.99,,,0.15,Acu-Link.com,2013-03-06 00:16:00,
2013-03-05 19:31:00,44.2,43.7,29.63,NW,315,1.7,-999.0,98,-99.99,,,0.15,Acu-Link.com,2013-03-06 00:31:00,
2013-03-05 19:47:00,44.2,43.7,29.62,NW,315,1.1,-999.0,98,-99.99,,,0.15,Acu-Link.com,2013-03-06 00:47:00,
2013-03-05 20:02:00,44.2,43.7,29.59,NNE,22,4.7,-999.0,98,-99.99,,,0.15,Acu-Link.com,2013-03-06 01:02:00,
2013-03-05 20:17:00,44.1,43.6,29.56,ENE,67,2.2,-999.0,98,-99.99,,,0.15,Acu-Link.com,2013-03-06 01:17:00,
2013-03-05 20:32:00,43.7,43.2,29.56,WSW,247,3.7,-999.0,98,-99.99,,,0.15,Acu-Link.com,2013-03-06 01:32:00,
2013-03-05 20:48:00,43.5,43.0,29.54,East,90,3.2,-999.0,98,-99.99,,,0.15,Acu-Link.com,2013-03-06 01:48:00,
2013-03-05 21:03:00,43.3,42.8,29.54,NE,45,2.2,-999.0,98,-99.99,,,0.15,Acu-Link.com,2013-03-06 02:03:00,
2013-03-05 21:18:00,43.0,42.5,29.54,ENE,67,2.2,-999.0,98,-99.99,,,0.15,Acu-Link.com,2013-03-06 02:18:00,
2013-03-05 21:34:00,42.8,42.3,29.52,SW,225,2.2,-999.0,98,-99.99,,,0.15,Acu-Link.com,2013-03-06 02:34:00,
2013-03-05 21:49:00,42.4,41.9,29.51,NNW,337,2.7,-999.0,98,-99.99,,,0.16,Acu-Link.com,2013-03-06 02:49:00,
2013-03-05 22:04:00,42.4,41.9,29.50,NNE,22,4.2,-999.0,98,-99.99,,,0.22,Acu-Link.com,2013-03-06 03:04:00,
2013-03-05 22:19:00,42.3,41.8,29.50,SE,135,2.2,-999.0,98,-99.99,,,0.27,Acu-Link.com,2013-03-06 03:19:00,
2013-03-05 22:35:00,42.3,41.8,29.49,ESE,112,1.7,-999.0,98,-99.99,,,0.36,Acu-Link.com,2013-03-06 03:35:00,
2013-03-05 22:50:00,42.3,41.8,29.48,NNW,337,1.7,-999.0,98,-99.99,,,0.46,Acu-Link.com,2013-03-06 03:50:00,
2013-03-05 23:05:00,42.3,41.8,29.47,SSE,157,1.1,-999.0,98,-99.99,,,0.47,Acu-Link.com,2013-03-06 04:05:00,
2013-03-05 23:20:00,42.4,41.9,29.45,East,90,0.0,-999.0,98,-99.99,,,0.47,Acu-Link.com,2013-03-06 04:20:00,
2013-03-05 23:36:00,42.6,42.1,29.44,NE,45,2.7,-999.0,98,-99.99,,,0.47,Acu-Link.com,2013-03-06 04:36:00,
2013-03-05 23:51:00,42.4,41.9,29.43,NNE,22,0.0,-999.0,98,-99.99,,,0.47,Acu-Link.com,2013-03-06 04:51:00,